createdAt,value
2023-10-14T00:01:52.882Z,3.78
2023-10-14T00:04:23.037Z,3.88
2023-10-14T00:06:50.051Z,5.22
2023-10-14T00:09:17.002Z,4.18
2023-10-14T00:12:10.044Z,3.42
2023-10-14T00:14:37.864Z,3.63
2023-10-14T00:17:12.487Z,3.47
2023-10-14T00:19:39.335Z,3.75
2023-10-14T00:22:08.134Z,3.33
2023-10-14T00:24:39.228Z,2.85
2023-10-14T00:27:09.009Z,3.00
2023-10-14T00:29:36.702Z,3.60
2023-10-14T00:32:04.689Z,2.13
2023-10-14T00:34:31.760Z,4.03
2023-10-14T00:36:58.761Z,3.92
2023-10-14T00:39:29.099Z,3.10
2023-10-14T00:41:57.061Z,2.00
2023-10-14T00:44:25.684Z,3.17
2023-10-14T00:46:56.767Z,3.47
2023-10-14T00:49:36.516Z,2.38
2023-10-14T00:54:47.341Z,2.00
2023-10-14T00:57:17.669Z,2.47
2023-10-14T00:59:52.532Z,3.05
2023-10-14T01:02:30.488Z,1.52
2023-10-14T04:36:56.124Z,2.08
2023-10-14T04:39:34.790Z,2.58
2023-10-14T04:42:19.810Z,4.97
2023-10-14T04:44:55.423Z,4.07
2023-10-14T04:47:49.345Z,3.67
2023-10-14T04:50:17.126Z,3.50
2023-10-14T04:52:49.414Z,3.70
2023-10-14T04:55:26.522Z,3.72
2023-10-14T04:58:12.139Z,3.75
2023-10-14T05:00:44.107Z,5.43
2023-10-14T05:03:13.427Z,2.92
2023-10-14T05:05:45.013Z,4.43
2023-10-14T05:08:17.050Z,2.67
2023-10-14T05:10:45.278Z,2.38
2023-10-14T05:13:14.088Z,3.03
2023-10-14T05:15:43.007Z,4.10
2023-10-14T05:18:17.390Z,3.28
2023-10-14T05:21:09.171Z,3.42
2023-10-14T05:23:39.450Z,4.20
2023-10-14T05:26:08.081Z,3.50
2023-10-14T05:28:38.294Z,4.10
2023-10-14T05:31:11.047Z,3.15
2023-10-14T05:33:38.572Z,3.65
2023-10-14T05:36:06.383Z,4.00
2023-10-14T05:38:33.260Z,5.32
2023-10-14T05:41:00.453Z,4.32
2023-10-14T05:43:27.771Z,3.08
2023-10-14T05:45:54.971Z,3.45
2023-10-14T05:48:31.863Z,3.78
2023-10-14T05:50:59.040Z,4.07
2023-10-14T05:53:32.353Z,3.40
2023-10-14T05:56:01.294Z,3.10
2023-10-14T05:58:29.396Z,3.40
2023-10-14T06:00:57.643Z,4.60
2023-10-14T06:03:24.605Z,3.72
2023-10-14T06:05:51.480Z,4.25
2023-10-14T06:08:19.011Z,3.58
2023-10-14T06:10:46.104Z,4.47
2023-10-14T06:13:15.358Z,3.25
2023-10-14T06:15:43.270Z,3.13
2023-10-14T06:18:10.201Z,3.05
2023-10-14T06:20:37.120Z,3.25
2023-10-14T06:23:04.177Z,3.42
2023-10-14T06:25:31.004Z,4.07
2023-10-14T06:28:00.764Z,4.30
2023-10-14T06:30:30.366Z,2.47
2023-10-14T06:33:05.217Z,3.38
2023-10-14T06:35:33.467Z,3.63
2023-10-14T06:38:01.003Z,4.15
2023-10-14T06:40:36.726Z,3.28
2023-10-14T06:43:10.750Z,4.88
2023-10-14T06:45:39.001Z,4.20
2023-10-14T06:48:13.281Z,3.33
2023-10-14T06:50:43.263Z,3.03
2023-10-14T06:53:10.364Z,3.42
2023-10-14T06:55:43.749Z,3.15
2023-10-14T06:58:12.571Z,3.33
2023-10-14T07:00:40.832Z,2.95
2023-10-14T07:03:13.831Z,2.58
2023-10-14T07:05:47.755Z,3.72
2023-10-14T07:08:15.368Z,3.13
2023-10-14T07:10:42.798Z,3.05
2023-10-14T07:13:09.704Z,2.92
2023-10-14T07:15:38.028Z,3.10
2023-10-14T07:18:05.190Z,4.38
2023-10-14T07:20:32.090Z,3.83
2023-10-14T07:23:00.043Z,3.08
2023-10-14T07:25:27.885Z,4.53
2023-10-14T07:27:54.778Z,4.10
2023-10-14T07:30:27.758Z,2.58
2023-10-14T07:32:55.404Z,3.40
2023-10-14T07:35:23.161Z,5.85
2023-10-14T07:37:52.169Z,3.83
2023-10-14T07:40:27.785Z,2.72
2023-10-14T07:43:09.110Z,4.60
2023-10-14T07:45:38.490Z,3.38
2023-10-14T07:48:12.232Z,5.85
2023-10-14T07:50:43.850Z,5.78
2023-10-14T07:53:15.003Z,5.95
2023-10-14T07:55:42.571Z,4.90
2023-10-14T07:58:11.726Z,5.57
2023-10-14T08:00:53.871Z,4.63
2023-10-14T08:03:25.725Z,7.22
2023-10-14T08:05:55.560Z,6.78
2023-10-14T08:10:51.533Z,5.47
2023-10-14T08:13:22.360Z,4.47
2023-10-14T08:15:54.136Z,8.65
2023-10-14T08:18:24.935Z,7.45
2023-10-14T08:20:55.966Z,10.27
2023-10-14T08:23:27.221Z,10.10
2023-10-14T08:25:58.191Z,5.35
2023-10-14T08:28:26.143Z,4.95
2023-10-14T08:30:53.151Z,5.95
2023-10-14T08:33:29.477Z,5.75
2023-10-14T08:35:57.274Z,7.78
2023-10-14T08:38:24.341Z,5.97
2023-10-14T08:40:55.311Z,6.47
2023-10-14T08:43:32.036Z,6.85
2023-10-14T08:46:01.439Z,5.07
2023-10-14T08:50:58.089Z,8.15
2023-10-14T08:53:26.162Z,5.57
2023-10-14T08:55:59.124Z,5.95
2023-10-14T08:58:27.532Z,9.80
2023-10-14T09:00:55.794Z,6.50
2023-10-14T09:03:25.805Z,9.77
2023-10-14T09:05:53.439Z,9.45
2023-10-14T09:08:20.913Z,6.20
2023-10-14T09:10:49.409Z,8.13
2023-10-14T09:13:23.553Z,8.38
2023-10-14T09:15:51.758Z,7.78
2023-10-14T09:18:23.725Z,6.47
2023-10-14T09:20:57.638Z,8.52
2023-10-14T09:23:31.316Z,7.05
2023-10-14T09:26:05.677Z,6.32
2023-10-14T09:28:35.236Z,8.65
2023-10-14T09:31:04.502Z,7.07
2023-10-14T09:33:36.061Z,5.00
2023-10-14T09:36:12.564Z,6.22
2023-10-14T09:38:44.978Z,7.18
2023-10-14T09:41:12.164Z,6.22
2023-10-14T09:43:48.762Z,5.93
2023-10-14T09:46:21.154Z,7.30
2023-10-14T09:48:48.662Z,5.43
2023-10-14T09:51:18.552Z,6.35
2023-10-14T09:53:51.988Z,5.70
2023-10-14T09:56:26.289Z,6.88
2023-10-14T09:58:57.224Z,4.95
2023-10-14T10:01:25.656Z,6.20
2023-10-14T10:03:58.572Z,4.45
2023-10-14T10:07:05.380Z,5.50
2023-10-14T10:09:41.362Z,5.72
2023-10-14T10:12:11.545Z,5.45
2023-10-14T10:14:44.025Z,5.07
2023-10-14T10:17:12.858Z,6.60
2023-10-14T10:22:42.762Z,6.53
2023-10-14T10:25:12.708Z,6.88
2023-10-14T10:27:41.578Z,4.78
2023-10-14T10:30:12.521Z,6.33
2023-10-14T10:32:39.823Z,6.00
2023-10-14T10:35:06.793Z,5.35
2023-10-14T10:37:41.269Z,4.28
2023-10-14T10:40:12.716Z,4.97
2023-10-14T10:42:46.195Z,5.13
2023-10-14T10:45:36.169Z,5.35
2023-10-14T10:48:07.728Z,4.82
2023-10-14T10:50:36.729Z,6.22
2023-10-14T10:53:10.133Z,6.30
2023-10-14T10:55:47.963Z,5.70
2023-10-14T11:00:47.367Z,4.70
2023-10-14T11:03:15.971Z,4.07
2023-10-14T11:05:44.983Z,5.15
2023-10-14T11:08:12.342Z,4.65
2023-10-14T11:10:40.728Z,3.78
2023-10-14T11:13:14.600Z,5.70
2023-10-14T11:15:44.384Z,4.13
2023-10-14T11:18:20.371Z,5.88
2023-10-14T11:20:54.886Z,5.68
2023-10-14T11:23:21.778Z,5.80
2023-10-14T11:25:51.854Z,4.78
2023-10-14T11:28:18.771Z,5.82
2023-10-14T11:30:47.493Z,5.45
2023-10-14T11:33:15.586Z,5.87
2023-10-14T11:35:42.724Z,3.42
2023-10-14T11:38:14.400Z,4.32
2023-10-14T11:40:48.487Z,4.10
2023-10-14T11:43:17.240Z,4.47
2023-10-14T11:45:46.831Z,3.88
2023-10-14T11:48:29.432Z,3.85
2023-10-14T11:51:00.462Z,4.00
2023-10-14T11:53:34.829Z,3.42
2023-10-14T11:56:04.320Z,4.45
2023-10-14T11:58:36.581Z,4.07
2023-10-14T12:01:05.288Z,3.92
2023-10-14T12:03:32.389Z,4.53
2023-10-14T12:06:00.930Z,3.97
2023-10-14T12:08:33.474Z,4.60
2023-10-14T12:11:00.795Z,4.22
2023-10-14T12:13:46.017Z,4.82
2023-10-14T12:16:14.652Z,3.90
2023-10-14T12:18:43.323Z,5.60
2023-10-14T12:21:10.252Z,3.90
2023-10-14T12:23:37.062Z,4.78
2023-10-14T12:26:03.961Z,6.55
2023-10-14T12:28:31.755Z,7.97
2023-10-14T12:31:08.504Z,9.57
2023-10-14T12:33:40.313Z,7.57
2023-10-14T12:36:12.014Z,7.80
2023-10-14T12:38:44.052Z,9.20
2023-10-14T12:41:32.212Z,9.68
2023-10-14T12:44:01.871Z,9.27
2023-10-14T12:49:04.586Z,13.02
2023-10-14T12:54:09.987Z,7.53
2023-10-14T12:56:40.104Z,8.75
2023-10-14T12:59:14.034Z,8.02
2023-10-14T13:02:04.845Z,7.30
2023-10-14T13:04:31.791Z,6.55
2023-10-14T13:06:59.252Z,11.60
2023-10-14T13:09:30.699Z,6.00
2023-10-14T13:11:58.871Z,5.85
2023-10-14T13:14:29.183Z,8.30
2023-10-14T13:17:01.076Z,5.88
2023-10-14T13:19:34.407Z,5.05
2023-10-14T13:22:11.281Z,5.35
2023-10-14T13:24:38.967Z,6.68
2023-10-14T13:27:06.323Z,4.68
2023-10-14T13:29:33.552Z,6.97
2023-10-14T13:32:00.720Z,4.18
2023-10-14T13:34:27.775Z,6.97
2023-10-14T13:36:58.162Z,5.38
2023-10-14T13:39:26.542Z,5.93
2023-10-14T13:41:55.147Z,4.65
2023-10-14T13:44:22.134Z,5.77
2023-10-14T13:46:49.134Z,4.88
2023-10-14T13:49:24.889Z,4.88
2023-10-14T13:51:55.242Z,5.05
2023-10-14T13:54:24.196Z,4.55
2023-10-14T13:56:51.238Z,4.78
2023-10-14T13:59:23.365Z,3.85
2023-10-14T14:01:50.649Z,4.53
2023-10-14T14:04:18.853Z,4.38
2023-10-14T14:06:46.440Z,4.30
2023-10-14T14:09:16.199Z,3.00
2023-10-14T14:11:43.259Z,4.80
2023-10-14T14:14:10.134Z,3.55
2023-10-14T14:16:37.804Z,3.75
2023-10-14T14:19:05.229Z,4.25
2023-10-14T14:21:33.429Z,2.22
2023-10-14T14:24:00.423Z,2.47
2023-10-14T14:26:27.404Z,3.72
2023-10-14T14:28:58.537Z,4.97
2023-10-14T14:31:28.767Z,4.05
2023-10-14T14:33:56.101Z,4.57
2023-10-14T14:36:23.267Z,4.55
2023-10-14T14:38:50.240Z,4.88
2023-10-14T14:41:19.546Z,3.17
2023-10-14T14:43:46.994Z,4.32
2023-10-14T14:46:14.235Z,3.72
2023-10-14T14:48:41.254Z,2.35
2023-10-14T14:51:12.214Z,2.95
2023-10-14T14:53:39.080Z,3.28
2023-10-14T14:56:11.164Z,4.15
2023-10-14T14:58:38.092Z,4.25
2023-10-14T15:01:17.618Z,5.88
2023-10-14T15:06:13.566Z,3.30
2023-10-14T15:08:40.396Z,2.67
2023-10-14T15:11:07.240Z,3.10
2023-10-14T15:13:35.225Z,2.47
2023-10-14T15:16:02.761Z,2.90
2023-10-14T15:18:29.979Z,3.13
2023-10-14T15:20:57.278Z,4.38
2023-10-14T15:25:51.292Z,3.05
2023-10-14T15:28:21.055Z,2.03
2023-10-14T15:30:48.525Z,2.47
2023-10-14T15:33:15.870Z,2.55
2023-10-14T15:35:42.775Z,3.08
2023-10-14T15:38:10.176Z,1.98
2023-10-14T15:40:37.561Z,3.13
2023-10-14T15:43:08.232Z,2.60
2023-10-14T15:45:38.419Z,4.13
2023-10-14T15:48:16.867Z,1.83
2023-10-14T15:50:45.670Z,3.30
2023-10-14T15:53:13.694Z,1.58
2023-10-14T15:55:42.830Z,1.40
2023-10-14T16:00:37.367Z,2.38
2023-10-14T16:03:08.899Z,3.38
2023-10-14T16:05:42.277Z,1.50
2023-10-14T16:08:14.769Z,2.28
2023-10-14T16:13:16.435Z,1.25
2023-10-14T16:15:44.312Z,2.10
2023-10-14T16:18:13.057Z,2.50
2023-10-14T16:20:40.242Z,2.53
2023-10-14T16:23:10.239Z,3.50
2023-10-14T16:25:37.233Z,2.88
2023-10-14T16:28:04.633Z,1.15
2023-10-14T16:30:33.767Z,1.48
2023-10-14T16:33:00.819Z,1.42
2023-10-14T16:35:31.994Z,1.27
2023-10-14T16:38:00.437Z,1.90
2023-10-14T16:40:28.949Z,3.05
2023-10-14T16:42:58.976Z,2.15
2023-10-14T16:45:29.872Z,2.38
2023-10-14T16:47:57.942Z,2.45
2023-10-14T16:50:28.963Z,2.63
2023-10-14T16:52:58.086Z,2.17
2023-10-14T16:55:26.374Z,1.83
2023-10-14T16:57:54.502Z,3.05
2023-10-14T17:00:23.892Z,3.35
2023-10-14T17:02:56.302Z,2.75
2023-10-14T17:05:24.002Z,2.55
2023-10-14T17:07:52.311Z,2.78
2023-10-14T17:10:20.167Z,3.17
2023-10-14T17:12:48.718Z,1.75
2023-10-14T17:15:19.637Z,4.05
2023-10-14T17:17:54.248Z,1.65
2023-10-14T17:20:22.019Z,2.60
2023-10-14T17:22:58.213Z,2.00
2023-10-14T17:25:30.133Z,1.65
2023-10-14T17:27:58.041Z,2.45
2023-10-14T17:30:32.895Z,2.80
2023-10-14T17:33:02.693Z,2.08
2023-10-14T17:35:30.211Z,1.83
2023-10-14T17:37:59.042Z,1.60
2023-10-14T17:40:30.432Z,1.60
2023-10-14T17:43:00.508Z,1.73
2023-10-14T17:48:00.192Z,2.17
2023-10-14T17:50:32.633Z,1.35
2023-10-14T17:53:00.369Z,2.00
2023-10-14T17:55:29.614Z,1.70
2023-10-14T17:58:01.772Z,1.85
2023-10-14T18:00:32.320Z,3.22
2023-10-14T18:03:12.862Z,2.45
2023-10-14T18:05:48.789Z,1.58
2023-10-14T18:08:16.827Z,1.08
2023-10-14T18:10:44.500Z,2.97
2023-10-14T18:13:12.662Z,1.58
2023-10-14T18:15:41.505Z,1.92
2023-10-14T18:18:09.861Z,2.60
2023-10-14T18:20:39.979Z,2.40
2023-10-14T18:25:44.759Z,2.22
2023-10-14T18:28:12.793Z,2.35
2023-10-14T18:30:40.948Z,2.80
2023-10-14T18:33:10.217Z,4.40
2023-10-14T18:35:39.897Z,1.97
2023-10-14T18:38:11.603Z,2.30
2023-10-14T18:40:39.930Z,2.45
2023-10-14T18:43:08.284Z,2.10
2023-10-14T18:45:35.972Z,2.10
2023-10-14T18:48:11.134Z,2.17
2023-10-14T18:50:42.850Z,2.75
2023-10-14T18:53:11.418Z,4.60
2023-10-14T18:55:41.316Z,3.00
2023-10-14T18:58:10.695Z,2.35
2023-10-14T19:03:11.782Z,1.73
2023-10-14T19:05:39.510Z,1.88
2023-10-14T19:08:14.132Z,2.55
2023-10-14T19:10:43.543Z,1.83
2023-10-14T19:13:12.252Z,2.15
2023-10-14T19:15:40.891Z,1.90
2023-10-14T19:18:16.998Z,2.33
2023-10-14T19:20:44.030Z,1.83
2023-10-14T19:23:27.478Z,2.90
2023-10-14T19:25:56.273Z,3.25
2023-10-14T19:28:26.754Z,2.20
2023-10-14T19:31:01.445Z,2.40
2023-10-14T19:33:28.545Z,1.80
2023-10-14T19:35:57.260Z,3.08
2023-10-14T19:38:26.142Z,1.40
2023-10-14T19:41:03.540Z,2.35
2023-10-14T19:43:33.160Z,4.25
2023-10-14T19:48:34.014Z,2.05
2023-10-14T19:51:12.764Z,1.83
2023-10-14T19:53:39.934Z,2.13
2023-10-14T19:56:12.096Z,2.85
2023-10-14T19:58:39.230Z,2.17
2023-10-14T20:01:10.833Z,1.98
2023-10-14T20:03:38.348Z,2.83
2023-10-14T20:06:08.291Z,2.28
2023-10-14T20:08:35.177Z,3.42
2023-10-14T20:11:03.272Z,2.83
2023-10-14T20:13:30.330Z,2.78
2023-10-14T20:15:58.751Z,4.65
2023-10-14T20:18:26.218Z,2.55
2023-10-14T20:20:53.118Z,1.52
2023-10-14T20:23:22.233Z,5.10
2023-10-14T20:25:53.365Z,2.28
2023-10-14T20:28:20.706Z,1.55
2023-10-14T20:30:48.667Z,2.15
2023-10-14T20:33:19.576Z,3.10
2023-10-14T20:35:48.798Z,2.65
2023-10-14T20:38:16.590Z,1.70
2023-10-14T20:40:46.841Z,1.88
2023-10-14T20:43:14.623Z,1.80
2023-10-14T20:45:42.712Z,1.58
2023-10-14T20:48:09.784Z,2.65
2023-10-14T20:50:40.962Z,2.78
2023-10-14T20:53:09.512Z,3.20
2023-10-14T20:55:37.094Z,2.28
2023-10-14T20:58:06.466Z,2.85
2023-10-14T21:00:38.885Z,2.78
2023-10-14T21:03:10.932Z,3.70
2023-10-14T21:05:47.948Z,2.70
2023-10-14T21:08:16.059Z,3.30
2023-10-14T21:10:48.054Z,2.75
2023-10-14T21:13:21.664Z,2.65
2023-10-14T21:16:00.483Z,3.10
2023-10-14T21:18:28.858Z,2.28
2023-10-14T21:20:56.292Z,2.50
2023-10-14T21:23:23.802Z,2.47
2023-10-14T21:25:58.529Z,3.47
2023-10-14T21:28:26.077Z,2.08
2023-10-14T21:30:53.575Z,2.95
2023-10-14T21:33:21.406Z,2.33
2023-10-14T21:35:49.131Z,4.20
2023-10-14T21:38:16.431Z,3.35
2023-10-14T21:40:44.496Z,2.38
2023-10-14T21:43:11.798Z,1.98
2023-10-14T21:45:38.867Z,3.50
2023-10-14T21:48:08.919Z,2.20
2023-10-14T21:50:36.861Z,2.65
2023-10-14T21:53:07.319Z,2.97
2023-10-14T21:55:42.383Z,2.47
2023-10-14T21:58:10.028Z,2.20
2023-10-14T22:00:50.482Z,2.90
2023-10-14T22:03:17.895Z,2.75
2023-10-14T22:05:45.290Z,3.13
2023-10-14T22:08:13.206Z,3.08
2023-10-14T22:10:41.779Z,1.65
2023-10-14T22:13:11.051Z,3.17
2023-10-14T22:15:40.884Z,1.85
2023-10-14T22:18:10.972Z,2.03
2023-10-14T22:23:08.925Z,2.67
2023-10-14T22:28:09.518Z,2.10
2023-10-14T22:30:37.644Z,2.88
2023-10-14T22:33:07.526Z,1.50
2023-10-14T22:35:36.161Z,2.88
2023-10-14T22:38:10.922Z,2.00
2023-10-14T22:40:38.663Z,2.33
2023-10-14T22:43:05.641Z,3.65
2023-10-14T22:45:33.655Z,2.15
2023-10-14T22:48:00.737Z,2.15
2023-10-14T22:50:29.249Z,2.42
2023-10-14T22:52:56.936Z,2.95
2023-10-14T22:55:25.469Z,2.05
2023-10-14T22:57:58.554Z,3.20
2023-10-14T23:00:27.210Z,1.67
2023-10-14T23:02:56.485Z,1.42
2023-10-14T23:05:29.012Z,1.98
2023-10-14T23:07:59.218Z,1.85
2023-10-14T23:10:27.195Z,1.80
2023-10-14T23:12:54.111Z,1.70
2023-10-14T23:15:27.815Z,1.98
2023-10-14T23:17:56.716Z,3.13
2023-10-14T23:20:27.192Z,1.73
2023-10-14T23:22:55.222Z,2.00
2023-10-14T23:25:25.187Z,1.83
2023-10-14T23:27:54.166Z,2.03
2023-10-14T23:30:22.799Z,1.52
2023-10-14T23:32:56.956Z,2.30
2023-10-14T23:35:25.487Z,2.47
2023-10-14T23:38:00.115Z,2.67
2023-10-14T23:40:30.831Z,2.00
2023-10-14T23:43:02.217Z,1.92
2023-10-14T23:45:34.428Z,2.10
2023-10-14T23:48:03.217Z,1.60
2023-10-14T23:50:30.801Z,1.80
2023-10-14T23:52:57.719Z,1.70
2023-10-14T23:55:26.482Z,1.73
2023-10-14T23:57:57.514Z,2.97
